createdAt,value
2022-09-18T00:00:51.174Z,7.47
2022-09-18T00:03:17.655Z,7.42
2022-09-18T00:05:44.136Z,7.45
2022-09-18T00:08:10.587Z,7.49
2022-09-18T00:10:46.569Z,7.55
2022-09-18T00:13:14.357Z,7.58
2022-09-18T00:15:41.493Z,7.56
2022-09-18T00:18:08.880Z,7.60
2022-09-18T00:20:36.584Z,7.43
2022-09-18T00:23:03.200Z,7.48
2022-09-18T00:25:31.853Z,7.45
2022-09-18T00:27:58.299Z,7.45
2022-09-18T00:30:24.876Z,7.53
2022-09-18T00:32:51.384Z,7.56
2022-09-18T00:35:17.789Z,7.48
2022-09-18T00:37:44.177Z,7.40
2022-09-18T00:40:10.940Z,7.40
2022-09-18T00:42:37.425Z,7.38
2022-09-18T00:45:04.115Z,7.29
2022-09-18T00:47:36.630Z,7.34
2022-09-18T00:50:13.072Z,7.27
2022-09-18T00:52:47.775Z,7.27
2022-09-18T00:55:17.930Z,7.29
2022-09-18T00:57:50.982Z,7.32
2022-09-18T01:00:17.451Z,7.32
2022-09-18T01:02:46.234Z,7.37
2022-09-18T01:05:20.191Z,7.32
2022-09-18T01:07:46.790Z,7.35
2022-09-18T01:10:27.248Z,7.30
2022-09-18T01:12:58.776Z,7.26
2022-09-18T01:15:37.598Z,7.19
2022-09-18T01:18:26.214Z,7.22
2022-09-18T01:21:01.762Z,7.18
2022-09-18T01:23:55.077Z,7.22
2022-09-18T01:26:47.823Z,7.29
2022-09-18T01:29:26.893Z,7.31
2022-09-18T01:31:59.226Z,7.21
2022-09-18T01:34:51.602Z,7.25
2022-09-18T01:37:24.074Z,7.25
2022-09-18T01:39:59.516Z,7.23
2022-09-18T01:42:29.735Z,7.09
2022-09-18T01:45:00.626Z,7.10
2022-09-18T01:47:32.519Z,7.12
2022-09-18T01:50:01.664Z,7.14
2022-09-18T01:52:33.534Z,7.09
2022-09-18T01:55:04.285Z,7.09
2022-09-18T01:57:45.149Z,7.05
2022-09-18T02:00:12.544Z,7.06
2022-09-18T02:03:11.023Z,7.08
2022-09-18T02:05:45.807Z,7.09
2022-09-18T02:08:28.669Z,7.09
2022-09-18T02:11:12.493Z,7.09
2022-09-18T02:13:55.077Z,7.06
2022-09-18T02:16:41.931Z,6.96
2022-09-18T02:19:32.638Z,6.99
2022-09-18T02:22:01.176Z,7.04
2022-09-18T02:24:33.371Z,7.11
2022-09-18T02:27:01.669Z,7.11
2022-09-18T02:29:28.319Z,7.02
2022-09-18T02:31:55.357Z,7.05
2022-09-18T02:34:24.071Z,7.06
2022-09-18T02:37:10.999Z,7.05
2022-09-18T02:39:57.666Z,6.92
2022-09-18T02:42:33.685Z,6.95
2022-09-18T02:49:07.402Z,6.95
2022-09-18T02:51:46.746Z,6.87
2022-09-18T02:54:18.050Z,6.82
2022-09-18T02:56:57.049Z,6.84
2022-09-18T02:59:31.138Z,6.89
2022-09-18T03:01:59.771Z,6.86
2022-09-18T03:04:28.659Z,6.86
2022-09-18T03:07:01.538Z,6.80
2022-09-18T03:09:30.034Z,6.83
2022-09-18T03:11:57.036Z,6.88
2022-09-18T03:14:25.416Z,6.92
2022-09-18T03:16:51.874Z,6.98
2022-09-18T03:19:18.475Z,7.01
2022-09-18T03:21:45.835Z,7.05
2022-09-18T03:24:12.781Z,7.10
2022-09-18T03:26:43.216Z,7.10
2022-09-18T03:29:10.140Z,7.11
2022-09-18T03:31:38.784Z,7.19
2022-09-18T03:34:06.716Z,7.16
2022-09-18T03:36:34.131Z,7.19
2022-09-18T03:39:01.164Z,7.21
2022-09-18T03:41:28.906Z,7.23
2022-09-18T03:43:56.437Z,7.27
2022-09-18T03:46:24.102Z,7.27
2022-09-18T03:48:54.460Z,7.26
2022-09-18T03:51:22.590Z,7.27
2022-09-18T03:53:51.259Z,7.36
2022-09-18T03:56:46.268Z,7.31
2022-09-18T03:59:26.202Z,7.26
2022-09-18T04:02:11.352Z,7.38
2022-09-18T04:04:47.027Z,7.29
2022-09-18T04:07:16.762Z,7.36
2022-09-18T04:09:58.724Z,7.42
2022-09-18T04:12:25.467Z,7.43
2022-09-18T04:15:09.625Z,7.42
2022-09-18T04:17:37.217Z,7.29
2022-09-18T04:20:04.878Z,7.32
2022-09-18T04:22:31.438Z,7.36
2022-09-18T04:24:57.950Z,7.43
2022-09-18T04:27:24.433Z,7.39
2022-09-18T04:29:54.255Z,7.42
2022-09-18T04:32:22.630Z,7.52
2022-09-18T04:34:49.117Z,7.48
2022-09-18T04:37:15.545Z,7.51
2022-09-18T04:39:45.916Z,7.60
2022-09-18T04:42:13.012Z,7.53
2022-09-18T04:44:39.578Z,7.56
2022-09-18T04:47:09.684Z,7.58
2022-09-18T04:49:36.175Z,7.50
2022-09-18T04:52:02.777Z,7.55
2022-09-18T04:54:29.591Z,7.51
2022-09-18T04:56:56.814Z,7.53
2022-09-18T04:59:23.298Z,7.56
2022-09-18T05:01:50.986Z,7.59
2022-09-18T05:04:17.572Z,7.49
2022-09-18T05:06:57.251Z,7.49
2022-09-18T05:09:23.909Z,7.53
2022-09-18T05:11:50.384Z,7.56
2022-09-18T05:14:17.663Z,7.65
2022-09-18T05:16:47.584Z,7.66
2022-09-18T05:19:28.023Z,7.69
2022-09-18T05:22:01.430Z,7.69
2022-09-18T05:24:30.824Z,7.59
2022-09-18T05:26:57.312Z,7.45
2022-09-18T05:29:23.769Z,7.46
2022-09-18T05:31:54.854Z,7.35
2022-09-18T05:34:21.462Z,7.22
2022-09-18T05:36:48.331Z,7.26
2022-09-18T05:39:17.651Z,7.36
2022-09-18T05:41:47.904Z,7.42
2022-09-18T05:44:14.382Z,7.52
2022-09-18T05:46:40.979Z,7.54
2022-09-18T05:49:07.516Z,7.39
2022-09-18T05:51:34.779Z,7.32
2022-09-18T05:54:01.455Z,7.40
2022-09-18T05:56:38.619Z,7.56
2022-09-18T05:59:05.189Z,7.54
2022-09-18T06:01:32.064Z,7.48
2022-09-18T06:04:17.036Z,7.45
2022-09-18T06:06:54.000Z,7.25
2022-09-18T06:09:22.164Z,7.39
2022-09-18T06:11:48.780Z,7.42
2022-09-18T06:14:16.898Z,7.43
2022-09-18T06:16:43.426Z,7.37
2022-09-18T06:19:12.439Z,7.41
2022-09-18T06:21:41.862Z,7.47
2022-09-18T06:24:11.244Z,7.46
2022-09-18T06:26:48.735Z,7.50
2022-09-18T06:29:15.628Z,7.62
2022-09-18T06:31:50.314Z,7.51
2022-09-18T06:34:22.073Z,7.66
2022-09-18T06:36:49.103Z,7.57
2022-09-18T06:39:46.263Z,7.62
2022-09-18T06:42:22.028Z,7.74
2022-09-18T06:45:07.214Z,7.80
2022-09-18T06:47:34.105Z,7.87
2022-09-18T06:50:01.650Z,7.84
2022-09-18T06:52:29.011Z,7.88
2022-09-18T06:54:59.003Z,8.02
2022-09-18T06:57:31.251Z,7.92
2022-09-18T06:59:57.842Z,7.94
2022-09-18T07:02:24.917Z,7.88
2022-09-18T07:05:14.206Z,7.98
2022-09-18T07:07:45.562Z,8.13
2022-09-18T07:10:12.144Z,8.05
2022-09-18T07:12:48.335Z,8.07
2022-09-18T07:15:18.076Z,8.12
2022-09-18T07:17:44.886Z,8.19
2022-09-18T07:20:15.105Z,8.15
2022-09-18T07:22:47.223Z,8.27
2022-09-18T07:25:14.831Z,8.35
2022-09-18T07:27:43.041Z,8.10
2022-09-18T07:30:11.427Z,8.26
2022-09-18T07:32:37.877Z,8.21
2022-09-18T07:35:11.010Z,8.13
2022-09-18T07:37:39.013Z,8.17
2022-09-18T07:40:13.470Z,8.27
2022-09-18T07:43:15.505Z,8.08
2022-09-18T07:45:49.079Z,8.21
2022-09-18T07:48:16.324Z,8.14
2022-09-18T07:50:46.900Z,8.33
2022-09-18T07:53:14.658Z,8.26
2022-09-18T07:55:45.321Z,8.11
2022-09-18T07:58:13.928Z,7.98
2022-09-18T08:00:50.717Z,8.11
2022-09-18T08:03:18.646Z,8.01
2022-09-18T08:06:04.632Z,8.04
2022-09-18T08:08:31.547Z,8.15
2022-09-18T08:11:03.889Z,8.19
2022-09-18T08:13:44.355Z,8.17
2022-09-18T08:16:25.992Z,8.06
2022-09-18T08:20:02.471Z,8.08
2022-09-18T08:22:42.336Z,8.27
2022-09-18T08:25:11.040Z,8.30
2022-09-18T08:27:38.565Z,8.27
2022-09-18T08:30:06.863Z,8.09
2022-09-18T08:32:33.921Z,8.06
2022-09-18T08:35:03.289Z,8.00
2022-09-18T08:37:30.761Z,8.04
2022-09-18T08:40:25.275Z,8.11
2022-09-18T08:43:35.150Z,8.07
2022-09-18T08:46:07.267Z,8.18
2022-09-18T08:48:40.630Z,7.98
2022-09-18T08:51:19.584Z,7.93
2022-09-18T08:53:52.176Z,8.06
2022-09-18T08:56:56.853Z,8.06
2022-09-18T08:59:39.615Z,8.02
2022-09-18T09:02:24.277Z,8.08
2022-09-18T09:04:58.238Z,8.08
2022-09-18T09:07:46.310Z,8.11
2022-09-18T09:10:33.026Z,8.19
2022-09-18T09:13:38.033Z,8.21
2022-09-18T09:16:23.947Z,8.44
2022-09-18T09:19:10.093Z,8.36
2022-09-18T09:21:45.706Z,8.35
2022-09-18T09:24:21.137Z,8.43
2022-09-18T09:27:32.794Z,8.35
2022-09-18T09:30:16.590Z,8.46
2022-09-18T09:33:31.165Z,8.56
2022-09-18T09:36:18.302Z,8.66
2022-09-18T09:38:57.017Z,8.74
2022-09-18T09:41:57.390Z,8.64
2022-09-18T09:44:37.199Z,8.55
2022-09-18T09:47:15.193Z,8.50
2022-09-18T09:50:06.817Z,8.57
2022-09-18T09:52:37.917Z,8.78
2022-09-18T09:55:14.739Z,8.70
2022-09-18T09:58:13.482Z,8.75
2022-09-18T10:01:14.202Z,8.77
2022-09-18T10:03:49.451Z,8.75
2022-09-18T10:06:26.794Z,8.74
2022-09-18T10:09:13.758Z,8.76
2022-09-18T10:11:43.291Z,8.80
2022-09-18T10:14:18.312Z,8.87
2022-09-18T10:16:49.094Z,8.95
2022-09-18T10:19:22.054Z,8.87
2022-09-18T10:21:52.853Z,9.03
2022-09-18T10:24:29.914Z,9.04
2022-09-18T10:27:14.818Z,9.10
2022-09-18T10:29:43.012Z,9.16
2022-09-18T10:32:32.409Z,9.11
2022-09-18T10:35:01.058Z,9.14
2022-09-18T10:37:30.436Z,9.23
2022-09-18T10:40:37.267Z,9.39
2022-09-18T10:43:06.494Z,9.42
2022-09-18T10:45:41.847Z,9.30
2022-09-18T10:48:31.824Z,9.49
2022-09-18T10:51:02.863Z,9.49
2022-09-18T10:53:38.580Z,9.57
2022-09-18T10:56:20.171Z,9.58
2022-09-18T10:58:48.699Z,9.65
2022-09-18T11:01:15.893Z,9.61
2022-09-18T11:03:59.473Z,9.76
2022-09-18T11:06:31.983Z,9.58
2022-09-18T11:09:10.628Z,9.65
2022-09-18T11:11:44.834Z,9.69
2022-09-18T11:14:32.353Z,9.64
2022-09-18T11:17:04.145Z,9.73
2022-09-18T11:19:39.334Z,9.52
2022-09-18T11:22:42.474Z,9.47
2022-09-18T11:25:29.325Z,9.69
2022-09-18T11:28:01.484Z,9.86
2022-09-18T11:30:38.463Z,9.84
2022-09-18T11:33:30.234Z,9.81
2022-09-18T11:36:10.297Z,9.89
2022-09-18T11:38:44.325Z,9.92
2022-09-18T11:41:13.560Z,9.94
2022-09-18T11:43:59.850Z,9.93
2022-09-18T11:47:05.544Z,10.05
2022-09-18T11:49:44.353Z,10.13
2022-09-18T11:52:29.256Z,10.19
2022-09-18T11:55:09.396Z,10.06
2022-09-18T11:57:42.410Z,10.17
2022-09-18T12:00:21.534Z,10.27
2022-09-18T12:03:22.058Z,10.48
2022-09-18T12:05:55.937Z,10.49
2022-09-18T12:08:47.053Z,10.47
2022-09-18T12:11:23.721Z,10.42
2022-09-18T12:14:00.381Z,10.49
2022-09-18T12:16:50.181Z,10.57
2022-09-18T12:19:36.901Z,10.80
2022-09-18T12:22:18.395Z,10.84
2022-09-18T12:24:46.023Z,10.85
2022-09-18T12:27:27.799Z,10.85
2022-09-18T12:30:03.744Z,11.03
2022-09-18T12:32:52.115Z,10.96
2022-09-18T12:35:36.104Z,10.91
2022-09-18T12:38:21.233Z,11.62
2022-09-18T12:41:03.639Z,11.85
2022-09-18T12:43:42.616Z,12.33
2022-09-18T12:46:34.871Z,12.64
2022-09-18T12:49:07.731Z,12.69
2022-09-18T12:51:43.111Z,13.23
2022-09-18T12:54:12.498Z,13.07
2022-09-18T12:56:44.975Z,13.54
2022-09-18T12:59:40.807Z,13.20
2022-09-18T13:02:19.497Z,13.03
2022-09-18T13:04:50.120Z,13.19
2022-09-18T13:07:22.834Z,12.83
2022-09-18T13:10:18.258Z,12.91
2022-09-18T13:12:48.220Z,12.88
2022-09-18T13:15:26.351Z,13.24
2022-09-18T13:18:05.981Z,12.86
2022-09-18T13:20:39.959Z,13.47
2022-09-18T13:23:15.753Z,13.45
2022-09-18T13:25:43.310Z,13.49
2022-09-18T13:28:15.248Z,13.75
2022-09-18T13:30:42.105Z,13.59
2022-09-18T13:33:23.465Z,13.90
2022-09-18T13:35:58.025Z,14.37
2022-09-18T13:38:27.980Z,14.10
2022-09-18T13:41:06.564Z,14.17
2022-09-18T13:43:46.785Z,14.54
2022-09-18T13:46:36.618Z,14.57
2022-09-18T13:49:18.019Z,14.80
2022-09-18T13:51:44.540Z,14.27
2022-09-18T13:54:10.914Z,14.21
2022-09-18T13:57:02.836Z,14.72
2022-09-18T13:59:50.560Z,14.52
2022-09-18T14:02:37.583Z,15.05
2022-09-18T14:05:25.945Z,14.90
2022-09-18T14:07:56.881Z,14.79
2022-09-18T14:10:30.326Z,14.60
2022-09-18T14:13:14.906Z,14.59
2022-09-18T14:15:55.087Z,14.42
2022-09-18T14:18:35.523Z,14.64
2022-09-18T14:21:16.799Z,14.12
2022-09-18T14:23:46.347Z,13.61
2022-09-18T14:26:28.189Z,13.44
2022-09-18T14:29:16.526Z,13.58
2022-09-18T14:31:53.067Z,13.73
2022-09-18T14:34:24.873Z,14.37
2022-09-18T14:36:55.152Z,14.26
2022-09-18T14:39:32.448Z,14.49
2022-09-18T14:42:05.328Z,14.15
2022-09-18T14:44:33.863Z,14.04
2022-09-18T14:47:05.148Z,13.85
2022-09-18T14:49:42.182Z,13.62
2022-09-18T14:52:32.212Z,13.41
2022-09-18T14:55:11.751Z,13.58
2022-09-18T14:57:48.019Z,14.52
2022-09-18T15:00:18.102Z,14.92
2022-09-18T15:02:50.568Z,14.67
2022-09-18T15:05:19.978Z,14.93
2022-09-18T15:08:15.472Z,15.21
2022-09-18T15:10:46.172Z,15.45
2022-09-18T15:13:14.882Z,15.47
2022-09-18T15:15:43.177Z,15.79
2022-09-18T15:18:24.308Z,16.04
2022-09-18T15:20:52.539Z,15.58
2022-09-18T15:23:29.191Z,15.57
2022-09-18T15:25:59.411Z,15.68
2022-09-18T15:28:28.846Z,14.87
2022-09-18T15:30:59.661Z,15.28
2022-09-18T15:33:27.525Z,15.49
2022-09-18T15:35:55.811Z,15.89
2022-09-18T15:38:40.107Z,16.03
2022-09-18T15:41:23.865Z,15.67
2022-09-18T15:43:50.432Z,14.90
2022-09-18T15:46:35.723Z,14.17
2022-09-18T15:49:23.478Z,14.27
2022-09-18T15:51:49.945Z,14.12
2022-09-18T15:54:24.251Z,13.61
2022-09-18T15:56:54.103Z,13.19
2022-09-18T15:59:31.857Z,13.04
2022-09-18T16:02:00.537Z,12.91
2022-09-18T16:04:34.923Z,12.95
2022-09-18T16:07:24.345Z,12.94
2022-09-18T16:09:51.697Z,12.83
2022-09-18T16:12:25.261Z,12.71
2022-09-18T16:15:19.629Z,12.62
2022-09-18T16:17:46.199Z,12.53
2022-09-18T16:20:26.170Z,12.41
2022-09-18T16:23:15.196Z,12.32
2022-09-18T16:25:43.643Z,12.18
2022-09-18T16:28:23.557Z,12.14
2022-09-18T16:30:50.685Z,12.03
2022-09-18T16:33:23.273Z,11.97
2022-09-18T16:36:10.459Z,11.77
2022-09-18T16:38:36.959Z,11.69
2022-09-18T16:41:03.658Z,11.64
2022-09-18T16:43:30.109Z,11.78
2022-09-18T16:45:56.587Z,11.69
2022-09-18T16:48:24.389Z,11.72
2022-09-18T16:50:50.959Z,11.72
2022-09-18T16:53:17.715Z,11.64
2022-09-18T16:55:49.257Z,11.30
2022-09-18T16:58:19.055Z,11.28
2022-09-18T17:00:45.887Z,11.40
2022-09-18T17:03:12.727Z,11.42
2022-09-18T17:05:39.310Z,11.34
2022-09-18T17:08:05.924Z,11.18
2022-09-18T17:10:33.490Z,11.19
2022-09-18T17:12:59.944Z,11.17
2022-09-18T17:15:26.808Z,11.17
2022-09-18T17:17:53.303Z,11.15
2022-09-18T17:20:20.130Z,11.05
2022-09-18T17:22:47.466Z,11.16
2022-09-18T17:25:15.004Z,11.01
2022-09-18T17:27:43.823Z,11.02
2022-09-18T17:30:11.643Z,10.97
2022-09-18T17:32:38.781Z,10.96
2022-09-18T17:35:05.639Z,11.05
2022-09-18T17:37:32.303Z,10.98
2022-09-18T17:40:00.352Z,11.06
2022-09-18T17:42:27.305Z,10.96
2022-09-18T17:44:53.767Z,10.93
2022-09-18T17:47:20.462Z,10.91
2022-09-18T17:49:47.178Z,10.84
2022-09-18T17:52:14.375Z,10.75
2022-09-18T17:54:40.984Z,10.61
2022-09-18T17:57:11.509Z,10.54
2022-09-18T17:59:39.427Z,10.67
2022-09-18T18:02:07.852Z,10.72
2022-09-18T18:04:34.639Z,10.67
2022-09-18T18:07:01.313Z,10.75
2022-09-18T18:09:27.736Z,10.71
2022-09-18T18:11:55.071Z,10.75
2022-09-18T18:14:25.065Z,10.61
2022-09-18T18:16:52.686Z,10.54
2022-09-18T18:19:19.319Z,10.46
2022-09-18T18:21:45.944Z,10.43
2022-09-18T18:24:15.253Z,10.31
2022-09-18T18:26:42.805Z,10.24
2022-09-18T18:29:15.874Z,10.20
2022-09-18T18:31:43.226Z,10.17
2022-09-18T18:34:11.843Z,10.30
2022-09-18T18:36:40.223Z,10.25
2022-09-18T18:39:11.817Z,10.36
2022-09-18T18:41:39.578Z,10.19
2022-09-18T18:44:06.923Z,10.11
2022-09-18T18:46:36.772Z,10.18
2022-09-18T18:49:14.944Z,10.28
2022-09-18T18:51:45.046Z,10.25
2022-09-18T18:54:12.142Z,10.18
2022-09-18T18:56:38.940Z,10.30
2022-09-18T18:59:08.710Z,10.28
2022-09-18T19:01:35.924Z,10.23
2022-09-18T19:04:08.098Z,10.04
2022-09-18T19:06:43.780Z,10.07
2022-09-18T19:09:21.839Z,10.06
2022-09-18T19:11:50.406Z,10.08
2022-09-18T19:14:19.188Z,10.09
2022-09-18T19:16:46.700Z,10.08
2022-09-18T19:19:15.950Z,10.07
2022-09-18T19:21:42.877Z,10.01
2022-09-18T19:24:11.222Z,10.04
2022-09-18T19:26:39.330Z,9.98
2022-09-18T19:29:09.036Z,10.08
2022-09-18T19:31:38.053Z,10.09
2022-09-18T19:34:05.323Z,10.10
2022-09-18T19:36:32.837Z,10.08
2022-09-18T19:39:01.596Z,10.08
2022-09-18T19:41:42.612Z,10.09
2022-09-18T19:44:17.747Z,10.05
2022-09-18T19:46:46.050Z,10.08
2022-09-18T19:49:20.529Z,10.22
2022-09-18T19:51:47.336Z,10.21
2022-09-18T19:54:13.846Z,10.20
2022-09-18T19:56:47.037Z,10.04
2022-09-18T19:59:14.630Z,10.02
2022-09-18T20:01:41.317Z,10.13
2022-09-18T20:04:07.929Z,10.21
2022-09-18T20:06:34.604Z,10.24
2022-09-18T20:09:01.227Z,10.24
2022-09-18T20:11:27.669Z,10.35
2022-09-18T20:13:54.362Z,10.27
2022-09-18T20:16:22.419Z,10.32
2022-09-18T20:18:49.965Z,10.21
2022-09-18T20:21:19.228Z,10.24
2022-09-18T20:23:48.234Z,10.35
2022-09-18T20:26:17.867Z,10.32
2022-09-18T20:28:44.546Z,10.34
2022-09-18T20:31:13.342Z,10.26
2022-09-18T20:33:40.256Z,10.24
2022-09-18T20:36:09.068Z,10.26
2022-09-18T20:38:38.380Z,10.24
2022-09-18T20:41:07.425Z,10.11
2022-09-18T20:43:35.823Z,10.15
2022-09-18T20:46:06.570Z,10.16
2022-09-18T20:48:41.544Z,10.28
2022-09-18T20:51:13.994Z,10.23
2022-09-18T20:53:43.162Z,10.27
2022-09-18T20:56:11.979Z,10.28
2022-09-18T20:58:42.268Z,10.09
2022-09-18T21:01:13.659Z,10.00
2022-09-18T21:03:42.728Z,10.01
2022-09-18T21:06:22.474Z,10.10
2022-09-18T21:08:53.302Z,10.08
2022-09-18T21:11:26.393Z,10.05
2022-09-18T21:13:59.085Z,10.04
2022-09-18T21:16:27.705Z,10.03
2022-09-18T21:18:56.684Z,9.93
2022-09-18T21:21:24.856Z,9.87
2022-09-18T21:23:53.893Z,9.89
2022-09-18T21:26:21.939Z,9.87
2022-09-18T21:28:56.749Z,9.96
2022-09-18T21:31:23.330Z,9.97
2022-09-18T21:33:53.357Z,9.94
2022-09-18T21:36:21.900Z,9.95
2022-09-18T21:38:50.257Z,9.83
2022-09-18T21:41:18.527Z,9.89
2022-09-18T21:43:50.385Z,9.90
2022-09-18T21:46:19.330Z,9.85
2022-09-18T21:48:47.480Z,9.82
2022-09-18T21:51:16.199Z,9.82
2022-09-18T21:53:43.754Z,9.81
2022-09-18T21:56:12.591Z,9.74
2022-09-18T21:58:40.837Z,9.81
2022-09-18T22:01:19.298Z,9.74
2022-09-18T22:03:53.445Z,9.67
2022-09-18T22:06:21.575Z,9.50
2022-09-18T22:08:50.874Z,9.52
2022-09-18T22:11:18.943Z,9.49
2022-09-18T22:13:46.474Z,9.42
2022-09-18T22:16:13.693Z,9.32
2022-09-18T22:18:40.841Z,9.28
2022-09-18T22:21:28.083Z,9.33
2022-09-18T22:23:56.781Z,9.31
2022-09-18T22:26:25.696Z,9.19
2022-09-18T22:28:56.889Z,9.20
2022-09-18T22:31:24.783Z,9.17
2022-09-18T22:33:57.591Z,9.17
2022-09-18T22:36:25.247Z,9.07
2022-09-18T22:38:53.015Z,9.03
2022-09-18T22:41:20.509Z,9.05
2022-09-18T22:43:47.411Z,9.05
2022-09-18T22:46:16.407Z,8.98
2022-09-18T22:48:43.501Z,9.01
2022-09-18T22:51:19.157Z,9.00
2022-09-18T22:53:51.474Z,8.90
2022-09-18T22:56:19.279Z,8.89
2022-09-18T22:58:45.920Z,8.84
2022-09-18T23:01:22.703Z,8.89
2022-09-18T23:03:52.393Z,8.84
2022-09-18T23:06:22.586Z,8.85
2022-09-18T23:08:50.060Z,8.77
2022-09-18T23:11:22.604Z,8.80
2022-09-18T23:13:51.625Z,8.82
2022-09-18T23:16:19.691Z,8.74
2022-09-18T23:18:51.051Z,8.65
2022-09-18T23:21:17.774Z,8.67
2022-09-18T23:23:45.559Z,8.63
2022-09-18T23:26:14.489Z,8.67
2022-09-18T23:28:43.260Z,8.60
2022-09-18T23:31:12.559Z,8.60
2022-09-18T23:33:39.900Z,8.61
2022-09-18T23:36:11.766Z,8.48
2022-09-18T23:38:38.611Z,8.53
2022-09-18T23:41:07.196Z,8.56
2022-09-18T23:43:34.294Z,8.50
2022-09-18T23:46:01.030Z,8.46
2022-09-18T23:48:28.235Z,8.41
2022-09-18T23:50:55.497Z,8.37
2022-09-18T23:53:23.147Z,8.30
2022-09-18T23:55:49.958Z,8.25
2022-09-18T23:58:18.684Z,8.25
